sensor_id;sensor_type;location;lat;lon;timestamp;temperature;humidity
9393;DHT22;4736;52.508;13.422;2023-06-26T00:02:15;19.90;72.60
9393;DHT22;4736;52.508;13.422;2023-06-26T00:05:18;19.90;72.50
9393;DHT22;4736;52.508;13.422;2023-06-26T00:08:21;19.90;72.60
9393;DHT22;4736;52.508;13.422;2023-06-26T00:11:26;19.90;72.60
9393;DHT22;4736;52.508;13.422;2023-06-26T00:14:32;19.90;72.60
9393;DHT22;4736;52.508;13.422;2023-06-26T00:17:37;19.80;72.60
9393;DHT22;4736;52.508;13.422;2023-06-26T00:20:42;19.80;72.80
9393;DHT22;4736;52.508;13.422;2023-06-26T00:23:45;19.80;73.00
9393;DHT22;4736;52.508;13.422;2023-06-26T00:26:50;19.80;73.10
9393;DHT22;4736;52.508;13.422;2023-06-26T00:29:53;19.70;73.20
9393;DHT22;4736;52.508;13.422;2023-06-26T00:32:56;19.70;73.30
9393;DHT22;4736;52.508;13.422;2023-06-26T00:35:59;19.70;73.30
9393;DHT22;4736;52.508;13.422;2023-06-26T00:39:03;19.70;73.40
9393;DHT22;4736;52.508;13.422;2023-06-26T00:42:09;19.70;73.50
9393;DHT22;4736;52.508;13.422;2023-06-26T00:45:12;19.70;73.60
9393;DHT22;4736;52.508;13.422;2023-06-26T00:48:15;19.70;73.60
9393;DHT22;4736;52.508;13.422;2023-06-26T00:51:18;19.70;73.60
9393;DHT22;4736;52.508;13.422;2023-06-26T00:54:22;19.70;73.80
9393;DHT22;4736;52.508;13.422;2023-06-26T00:57:26;19.70;74.00
9393;DHT22;4736;52.508;13.422;2023-06-26T01:00:30;19.70;74.10
9393;DHT22;4736;52.508;13.422;2023-06-26T01:03:33;19.70;74.20
9393;DHT22;4736;52.508;13.422;2023-06-26T01:06:36;19.70;74.30
9393;DHT22;4736;52.508;13.422;2023-06-26T01:09:40;19.70;74.30
9393;DHT22;4736;52.508;13.422;2023-06-26T01:12:45;19.70;74.40
9393;DHT22;4736;52.508;13.422;2023-06-26T01:15:48;19.80;74.50
9393;DHT22;4736;52.508;13.422;2023-06-26T01:18:52;19.90;74.50
9393;DHT22;4736;52.508;13.422;2023-06-26T01:22:00;19.90;74.40
9393;DHT22;4736;52.508;13.422;2023-06-26T01:25:14;19.90;74.40
9393;DHT22;4736;52.508;13.422;2023-06-26T01:28:22;19.90;74.30
9393;DHT22;4736;52.508;13.422;2023-06-26T01:31:27;19.90;74.30
9393;DHT22;4736;52.508;13.422;2023-06-26T01:34:32;19.90;74.30
9393;DHT22;4736;52.508;13.422;2023-06-26T01:37:35;19.90;74.20
9393;DHT22;4736;52.508;13.422;2023-06-26T01:40:38;19.90;74.30
9393;DHT22;4736;52.508;13.422;2023-06-26T01:44:02;19.90;74.20
9393;DHT22;4736;52.508;13.422;2023-06-26T01:47:06;19.90;74.30
9393;DHT22;4736;52.508;13.422;2023-06-26T01:50:16;19.80;74.30
9393;DHT22;4736;52.508;13.422;2023-06-26T01:53:24;19.80;74.30
9393;DHT22;4736;52.508;13.422;2023-06-26T01:56:28;19.80;74.40
9393;DHT22;4736;52.508;13.422;2023-06-26T01:59:34;19.80;74.50
9393;DHT22;4736;52.508;13.422;2023-06-26T02:02:37;19.70;74.60
9393;DHT22;4736;52.508;13.422;2023-06-26T02:05:41;19.70;74.60
9393;DHT22;4736;52.508;13.422;2023-06-26T02:08:44;19.70;74.60
9393;DHT22;4736;52.508;13.422;2023-06-26T02:11:47;19.70;74.80
9393;DHT22;4736;52.508;13.422;2023-06-26T02:14:52;19.70;74.90
9393;DHT22;4736;52.508;13.422;2023-06-26T02:17:55;19.70;74.90
9393;DHT22;4736;52.508;13.422;2023-06-26T02:20:58;19.70;74.90
9393;DHT22;4736;52.508;13.422;2023-06-26T02:24:02;19.70;74.90
9393;DHT22;4736;52.508;13.422;2023-06-26T02:27:05;19.70;74.90
9393;DHT22;4736;52.508;13.422;2023-06-26T02:30:11;19.70;75.10
9393;DHT22;4736;52.508;13.422;2023-06-26T02:33:17;19.70;75.20
9393;DHT22;4736;52.508;13.422;2023-06-26T02:36:20;19.70;75.40
9393;DHT22;4736;52.508;13.422;2023-06-26T02:39:24;19.70;75.50
9393;DHT22;4736;52.508;13.422;2023-06-26T02:42:27;19.70;75.60
9393;DHT22;4736;52.508;13.422;2023-06-26T02:45:32;19.70;75.60
9393;DHT22;4736;52.508;13.422;2023-06-26T02:48:43;19.70;75.60
9393;DHT22;4736;52.508;13.422;2023-06-26T02:51:46;19.60;75.50
9393;DHT22;4736;52.508;13.422;2023-06-26T02:54:49;19.60;75.50
9393;DHT22;4736;52.508;13.422;2023-06-26T02:57:52;19.60;75.50
9393;DHT22;4736;52.508;13.422;2023-06-26T03:00:57;19.60;75.50
9393;DHT22;4736;52.508;13.422;2023-06-26T03:04:00;19.60;75.50
9393;DHT22;4736;52.508;13.422;2023-06-26T03:07:04;19.50;75.50
9393;DHT22;4736;52.508;13.422;2023-06-26T03:10:08;19.50;75.60
9393;DHT22;4736;52.508;13.422;2023-06-26T03:13:11;19.50;75.70
9393;DHT22;4736;52.508;13.422;2023-06-26T03:16:16;19.50;75.70
9393;DHT22;4736;52.508;13.422;2023-06-26T03:19:19;19.40;75.70
9393;DHT22;4736;52.508;13.422;2023-06-26T03:22:22;19.40;75.60
9393;DHT22;4736;52.508;13.422;2023-06-26T03:25:26;19.40;75.70
9393;DHT22;4736;52.508;13.422;2023-06-26T03:28:29;19.40;75.70
9393;DHT22;4736;52.508;13.422;2023-06-26T03:31:34;19.30;75.70
9393;DHT22;4736;52.508;13.422;2023-06-26T03:34:40;19.30;75.80
9393;DHT22;4736;52.508;13.422;2023-06-26T03:37:44;19.30;75.90
9393;DHT22;4736;52.508;13.422;2023-06-26T03:40:50;19.30;76.00
9393;DHT22;4736;52.508;13.422;2023-06-26T03:43:56;19.30;76.00
9393;DHT22;4736;52.508;13.422;2023-06-26T03:47:06;19.30;76.10
9393;DHT22;4736;52.508;13.422;2023-06-26T03:50:10;19.30;76.20
9393;DHT22;4736;52.508;13.422;2023-06-26T03:53:18;19.40;76.20
9393;DHT22;4736;52.508;13.422;2023-06-26T03:56:32;19.40;76.10
9393;DHT22;4736;52.508;13.422;2023-06-26T04:03:16;19.50;75.90
9393;DHT22;4736;52.508;13.422;2023-06-26T04:06:19;19.60;75.70
9393;DHT22;4736;52.508;13.422;2023-06-26T04:09:23;19.70;75.60
9393;DHT22;4736;52.508;13.422;2023-06-26T04:12:27;19.90;75.40
9393;DHT22;4736;52.508;13.422;2023-06-26T04:15:30;19.90;75.30
9393;DHT22;4736;52.508;13.422;2023-06-26T04:18:36;20.00;75.10
9393;DHT22;4736;52.508;13.422;2023-06-26T04:21:39;20.10;74.60
9393;DHT22;4736;52.508;13.422;2023-06-26T04:24:43;20.20;74.50
9393;DHT22;4736;52.508;13.422;2023-06-26T04:27:47;20.30;74.20
9393;DHT22;4736;52.508;13.422;2023-06-26T04:30:51;20.30;73.60
9393;DHT22;4736;52.508;13.422;2023-06-26T04:33:57;20.30;73.70
9393;DHT22;4736;52.508;13.422;2023-06-26T04:37:01;20.50;73.50
9393;DHT22;4736;52.508;13.422;2023-06-26T04:40:07;20.50;73.20
9393;DHT22;4736;52.508;13.422;2023-06-26T04:43:12;20.60;73.00
9393;DHT22;4736;52.508;13.422;2023-06-26T04:46:15;20.60;72.70
9393;DHT22;4736;52.508;13.422;2023-06-26T04:49:20;20.60;72.70
9393;DHT22;4736;52.508;13.422;2023-06-26T04:52:23;20.60;72.60
9393;DHT22;4736;52.508;13.422;2023-06-26T04:55:26;20.60;72.10
9393;DHT22;4736;52.508;13.422;2023-06-26T04:58:30;20.70;72.20
9393;DHT22;4736;52.508;13.422;2023-06-26T05:01:33;20.80;72.20
9393;DHT22;4736;52.508;13.422;2023-06-26T05:04:38;20.90;72.20
9393;DHT22;4736;52.508;13.422;2023-06-26T05:07:44;21.10;72.20
9393;DHT22;4736;52.508;13.422;2023-06-26T05:10:47;21.30;71.50
9393;DHT22;4736;52.508;13.422;2023-06-26T05:13:50;21.50;70.40
9393;DHT22;4736;52.508;13.422;2023-06-26T05:16:53;21.70;69.90
9393;DHT22;4736;52.508;13.422;2023-06-26T05:19:58;21.90;69.10
9393;DHT22;4736;52.508;13.422;2023-06-26T05:23:01;22.10;68.60
9393;DHT22;4736;52.508;13.422;2023-06-26T05:26:05;22.10;68.00
9393;DHT22;4736;52.508;13.422;2023-06-26T05:29:09;22.30;67.50
9393;DHT22;4736;52.508;13.422;2023-06-26T05:32:16;22.50;67.30
9393;DHT22;4736;52.508;13.422;2023-06-26T05:35:22;22.50;66.60
9393;DHT22;4736;52.508;13.422;2023-06-26T05:38:26;22.50;66.60
9393;DHT22;4736;52.508;13.422;2023-06-26T05:41:30;22.60;66.80
9393;DHT22;4736;52.508;13.422;2023-06-26T05:44:33;22.60;66.60
9393;DHT22;4736;52.508;13.422;2023-06-26T05:47:37;22.60;66.90
9393;DHT22;4736;52.508;13.422;2023-06-26T05:50:42;22.50;67.00
9393;DHT22;4736;52.508;13.422;2023-06-26T05:53:46;22.50;67.20
9393;DHT22;4736;52.508;13.422;2023-06-26T05:56:50;22.60;66.90
9393;DHT22;4736;52.508;13.422;2023-06-26T05:59:56;22.90;66.70
9393;DHT22;4736;52.508;13.422;2023-06-26T06:02:59;23.40;66.20
9393;DHT22;4736;52.508;13.422;2023-06-26T06:06:04;24.00;65.10
9393;DHT22;4736;52.508;13.422;2023-06-26T06:09:09;24.40;62.60
9393;DHT22;4736;52.508;13.422;2023-06-26T06:12:12;24.60;61.60
9393;DHT22;4736;52.508;13.422;2023-06-26T06:15:16;25.00;61.20
9393;DHT22;4736;52.508;13.422;2023-06-26T06:18:19;25.50;60.10
9393;DHT22;4736;52.508;13.422;2023-06-26T06:21:24;25.80;59.00
9393;DHT22;4736;52.508;13.422;2023-06-26T06:24:27;26.20;58.40
9393;DHT22;4736;52.508;13.422;2023-06-26T06:27:30;26.10;56.90
9393;DHT22;4736;52.508;13.422;2023-06-26T06:30:33;26.30;57.10
9393;DHT22;4736;52.508;13.422;2023-06-26T06:33:46;26.40;55.80
9393;DHT22;4736;52.508;13.422;2023-06-26T06:36:51;26.40;55.30
9393;DHT22;4736;52.508;13.422;2023-06-26T06:39:54;26.30;55.70
9393;DHT22;4736;52.508;13.422;2023-06-26T06:42:57;26.10;55.60
9393;DHT22;4736;52.508;13.422;2023-06-26T06:46:00;26.00;56.10
9393;DHT22;4736;52.508;13.422;2023-06-26T06:49:03;26.20;56.90
9393;DHT22;4736;52.508;13.422;2023-06-26T06:52:10;26.80;56.20
9393;DHT22;4736;52.508;13.422;2023-06-26T06:55:13;27.00;55.20
9393;DHT22;4736;52.508;13.422;2023-06-26T06:58:16;27.20;54.70
9393;DHT22;4736;52.508;13.422;2023-06-26T07:01:20;27.70;54.80
9393;DHT22;4736;52.508;13.422;2023-06-26T07:04:24;27.70;53.60
9393;DHT22;4736;52.508;13.422;2023-06-26T07:07:31;27.70;53.80
9393;DHT22;4736;52.508;13.422;2023-06-26T07:10:35;27.70;52.50
9393;DHT22;4736;52.508;13.422;2023-06-26T07:13:39;27.40;53.90
9393;DHT22;4736;52.508;13.422;2023-06-26T07:16:43;27.40;53.70
9393;DHT22;4736;52.508;13.422;2023-06-26T07:19:46;27.30;54.60
9393;DHT22;4736;52.508;13.422;2023-06-26T07:22:52;27.60;53.20
9393;DHT22;4736;52.508;13.422;2023-06-26T07:25:55;27.50;52.90
9393;DHT22;4736;52.508;13.422;2023-06-26T07:28:58;27.50;54.50
9393;DHT22;4736;52.508;13.422;2023-06-26T07:32:01;27.70;54.30
9393;DHT22;4736;52.508;13.422;2023-06-26T07:35:05;27.90;54.10
9393;DHT22;4736;52.508;13.422;2023-06-26T07:38:12;27.80;52.80
9393;DHT22;4736;52.508;13.422;2023-06-26T07:41:15;27.70;53.10
9393;DHT22;4736;52.508;13.422;2023-06-26T07:44:18;27.50;54.20
9393;DHT22;4736;52.508;13.422;2023-06-26T07:47:21;27.70;54.00
9393;DHT22;4736;52.508;13.422;2023-06-26T07:50:24;27.80;53.80
9393;DHT22;4736;52.508;13.422;2023-06-26T07:53:29;27.40;53.00
9393;DHT22;4736;52.508;13.422;2023-06-26T07:56:43;27.50;52.70
9393;DHT22;4736;52.508;13.422;2023-06-26T07:59:55;27.40;52.70
9393;DHT22;4736;52.508;13.422;2023-06-26T08:02:58;27.20;52.30
9393;DHT22;4736;52.508;13.422;2023-06-26T08:06:02;27.00;53.10
9393;DHT22;4736;52.508;13.422;2023-06-26T08:09:07;27.00;53.60
9393;DHT22;4736;52.508;13.422;2023-06-26T08:12:10;27.10;53.70
9393;DHT22;4736;52.508;13.422;2023-06-26T08:15:14;26.80;53.00
9393;DHT22;4736;52.508;13.422;2023-06-26T08:18:18;26.90;52.70
9393;DHT22;4736;52.508;13.422;2023-06-26T08:21:21;26.90;52.40
9393;DHT22;4736;52.508;13.422;2023-06-26T08:24:28;26.80;51.90
9393;DHT22;4736;52.508;13.422;2023-06-26T08:27:32;26.90;51.50
9393;DHT22;4736;52.508;13.422;2023-06-26T08:30:35;26.80;52.30
9393;DHT22;4736;52.508;13.422;2023-06-26T08:33:39;26.80;52.00
9393;DHT22;4736;52.508;13.422;2023-06-26T08:36:42;26.90;51.10
9393;DHT22;4736;52.508;13.422;2023-06-26T08:39:48;27.00;51.50
9393;DHT22;4736;52.508;13.422;2023-06-26T08:42:51;27.20;51.40
9393;DHT22;4736;52.508;13.422;2023-06-26T08:45:55;27.50;51.70
9393;DHT22;4736;52.508;13.422;2023-06-26T08:49:01;27.80;49.50
9393;DHT22;4736;52.508;13.422;2023-06-26T08:52:10;28.00;49.80
9393;DHT22;4736;52.508;13.422;2023-06-26T08:55:18;28.00;49.40
9393;DHT22;4736;52.508;13.422;2023-06-26T08:58:26;28.30;48.90
9393;DHT22;4736;52.508;13.422;2023-06-26T09:01:30;28.50;48.90
9393;DHT22;4736;52.508;13.422;2023-06-26T09:04:34;28.50;48.70
9393;DHT22;4736;52.508;13.422;2023-06-26T09:07:38;28.60;48.20
9393;DHT22;4736;52.508;13.422;2023-06-26T09:10:43;28.70;47.40
9393;DHT22;4736;52.508;13.422;2023-06-26T09:13:48;28.90;48.70
9393;DHT22;4736;52.508;13.422;2023-06-26T09:16:51;28.80;47.00
9393;DHT22;4736;52.508;13.422;2023-06-26T09:19:55;28.90;48.50
9393;DHT22;4736;52.508;13.422;2023-06-26T09:22:59;29.00;47.90
9393;DHT22;4736;52.508;13.422;2023-06-26T09:26:05;29.10;47.50
9393;DHT22;4736;52.508;13.422;2023-06-26T09:29:09;29.10;47.40
9393;DHT22;4736;52.508;13.422;2023-06-26T09:32:13;29.20;46.80
9393;DHT22;4736;52.508;13.422;2023-06-26T09:35:17;29.10;47.80
9393;DHT22;4736;52.508;13.422;2023-06-26T09:38:20;29.10;47.50
9393;DHT22;4736;52.508;13.422;2023-06-26T09:41:25;29.10;47.50
9393;DHT22;4736;52.508;13.422;2023-06-26T09:44:30;29.20;47.00
9393;DHT22;4736;52.508;13.422;2023-06-26T09:47:36;29.10;46.90
9393;DHT22;4736;52.508;13.422;2023-06-26T09:50:42;29.10;47.50
9393;DHT22;4736;52.508;13.422;2023-06-26T09:54:06;29.20;47.90
9393;DHT22;4736;52.508;13.422;2023-06-26T09:57:11;29.20;48.00
9393;DHT22;4736;52.508;13.422;2023-06-26T10:00:16;29.30;48.60
9393;DHT22;4736;52.508;13.422;2023-06-26T10:03:19;29.00;47.40
9393;DHT22;4736;52.508;13.422;2023-06-26T10:06:27;29.00;48.00
9393;DHT22;4736;52.508;13.422;2023-06-26T10:09:30;29.20;48.90
9393;DHT22;4736;52.508;13.422;2023-06-26T10:12:36;29.30;48.50
9393;DHT22;4736;52.508;13.422;2023-06-26T10:15:42;29.30;47.90
9393;DHT22;4736;52.508;13.422;2023-06-26T10:18:48;29.30;49.10
9393;DHT22;4736;52.508;13.422;2023-06-26T10:21:52;29.40;47.20
9393;DHT22;4736;52.508;13.422;2023-06-26T10:24:58;29.40;48.20
9393;DHT22;4736;52.508;13.422;2023-06-26T10:28:03;29.40;48.50
9393;DHT22;4736;52.508;13.422;2023-06-26T10:31:07;29.40;46.50
9393;DHT22;4736;52.508;13.422;2023-06-26T10:34:12;29.40;45.70
9393;DHT22;4736;52.508;13.422;2023-06-26T10:37:16;29.30;47.20
9393;DHT22;4736;52.508;13.422;2023-06-26T10:40:25;29.50;47.00
9393;DHT22;4736;52.508;13.422;2023-06-26T10:43:31;29.50;46.10
9393;DHT22;4736;52.508;13.422;2023-06-26T10:46:37;29.30;47.10
9393;DHT22;4736;52.508;13.422;2023-06-26T10:49:50;29.50;47.10
9393;DHT22;4736;52.508;13.422;2023-06-26T10:53:13;29.60;47.70
9393;DHT22;4736;52.508;13.422;2023-06-26T10:56:20;29.70;46.70
9393;DHT22;4736;52.508;13.422;2023-06-26T10:59:26;29.70;46.80
9393;DHT22;4736;52.508;13.422;2023-06-26T11:02:47;29.80;46.70
9393;DHT22;4736;52.508;13.422;2023-06-26T11:06:09;30.00;46.70
9393;DHT22;4736;52.508;13.422;2023-06-26T11:09:15;29.90;46.50
9393;DHT22;4736;52.508;13.422;2023-06-26T11:12:34;30.00;47.20
9393;DHT22;4736;52.508;13.422;2023-06-26T11:15:40;30.10;46.70
9393;DHT22;4736;52.508;13.422;2023-06-26T11:18:45;30.10;47.30
9393;DHT22;4736;52.508;13.422;2023-06-26T11:21:48;30.20;46.50
9393;DHT22;4736;52.508;13.422;2023-06-26T11:24:54;30.30;46.30
9393;DHT22;4736;52.508;13.422;2023-06-26T11:27:58;30.50;46.20
9393;DHT22;4736;52.508;13.422;2023-06-26T11:31:02;30.30;45.70
9393;DHT22;4736;52.508;13.422;2023-06-26T11:34:06;30.30;46.60
9393;DHT22;4736;52.508;13.422;2023-06-26T11:37:11;30.30;46.80
9393;DHT22;4736;52.508;13.422;2023-06-26T11:40:18;30.50;45.70
9393;DHT22;4736;52.508;13.422;2023-06-26T11:43:21;30.60;46.60
9393;DHT22;4736;52.508;13.422;2023-06-26T11:46:27;30.60;46.40
9393;DHT22;4736;52.508;13.422;2023-06-26T11:49:30;30.70;46.30
9393;DHT22;4736;52.508;13.422;2023-06-26T11:52:34;30.80;45.60
9393;DHT22;4736;52.508;13.422;2023-06-26T11:55:41;30.60;44.80
9393;DHT22;4736;52.508;13.422;2023-06-26T11:58:59;30.60;45.70
9393;DHT22;4736;52.508;13.422;2023-06-26T12:02:10;30.60;44.70
9393;DHT22;4736;52.508;13.422;2023-06-26T12:05:14;30.70;45.40
9393;DHT22;4736;52.508;13.422;2023-06-26T12:08:18;30.80;45.90
9393;DHT22;4736;52.508;13.422;2023-06-26T12:11:22;30.90;44.90
9393;DHT22;4736;52.508;13.422;2023-06-26T12:14:29;30.80;45.80
9393;DHT22;4736;52.508;13.422;2023-06-26T12:17:33;30.90;46.30
9393;DHT22;4736;52.508;13.422;2023-06-26T12:20:40;31.00;45.50
9393;DHT22;4736;52.508;13.422;2023-06-26T12:23:43;31.20;45.00
9393;DHT22;4736;52.508;13.422;2023-06-26T12:26:49;31.30;44.80
9393;DHT22;4736;52.508;13.422;2023-06-26T12:29:54;31.40;45.10
9393;DHT22;4736;52.508;13.422;2023-06-26T12:32:58;31.40;45.40
9393;DHT22;4736;52.508;13.422;2023-06-26T12:36:02;31.40;44.80
9393;DHT22;4736;52.508;13.422;2023-06-26T12:39:05;31.40;45.60
9393;DHT22;4736;52.508;13.422;2023-06-26T12:42:08;31.60;44.60
9393;DHT22;4736;52.508;13.422;2023-06-26T12:45:12;31.80;44.30
9393;DHT22;4736;52.508;13.422;2023-06-26T12:48:38;31.90;43.80
9393;DHT22;4736;52.508;13.422;2023-06-26T12:51:46;31.70;43.40
9393;DHT22;4736;52.508;13.422;2023-06-26T12:54:52;31.80;44.00
9393;DHT22;4736;52.508;13.422;2023-06-26T12:57:55;31.70;44.00
9393;DHT22;4736;52.508;13.422;2023-06-26T13:00:59;31.80;43.90
9393;DHT22;4736;52.508;13.422;2023-06-26T13:04:05;31.90;43.30
9393;DHT22;4736;52.508;13.422;2023-06-26T13:07:10;32.00;43.70
9393;DHT22;4736;52.508;13.422;2023-06-26T13:10:13;31.90;44.60
9393;DHT22;4736;52.508;13.422;2023-06-26T13:13:17;31.80;44.20
9393;DHT22;4736;52.508;13.422;2023-06-26T13:16:20;31.60;44.00
9393;DHT22;4736;52.508;13.422;2023-06-26T13:19:25;31.50;44.30
9393;DHT22;4736;52.508;13.422;2023-06-26T13:22:28;31.20;44.80
9393;DHT22;4736;52.508;13.422;2023-06-26T13:25:31;31.10;45.70
9393;DHT22;4736;52.508;13.422;2023-06-26T13:28:34;30.80;45.20
9393;DHT22;4736;52.508;13.422;2023-06-26T13:31:37;30.50;45.70
9393;DHT22;4736;52.508;13.422;2023-06-26T13:34:42;30.20;46.50
9393;DHT22;4736;52.508;13.422;2023-06-26T13:37:46;30.10;46.50
9393;DHT22;4736;52.508;13.422;2023-06-26T13:40:50;30.00;46.40
9393;DHT22;4736;52.508;13.422;2023-06-26T13:43:53;29.90;46.70
9393;DHT22;4736;52.508;13.422;2023-06-26T13:47:13;29.70;47.40
9393;DHT22;4736;52.508;13.422;2023-06-26T13:50:17;29.70;47.10
9393;DHT22;4736;52.508;13.422;2023-06-26T13:53:21;29.70;47.60
9393;DHT22;4736;52.508;13.422;2023-06-26T13:56:24;29.70;47.60
9393;DHT22;4736;52.508;13.422;2023-06-26T13:59:29;29.70;48.00
9393;DHT22;4736;52.508;13.422;2023-06-26T14:02:32;29.70;47.50
9393;DHT22;4736;52.508;13.422;2023-06-26T14:05:37;29.80;47.30
9393;DHT22;4736;52.508;13.422;2023-06-26T14:08:43;29.70;47.80
9393;DHT22;4736;52.508;13.422;2023-06-26T14:11:46;29.70;48.20
9393;DHT22;4736;52.508;13.422;2023-06-26T14:14:50;29.50;48.40
9393;DHT22;4736;52.508;13.422;2023-06-26T14:17:53;29.30;48.30
9393;DHT22;4736;52.508;13.422;2023-06-26T14:20:59;29.20;48.20
9393;DHT22;4736;52.508;13.422;2023-06-26T14:24:03;29.00;48.50
9393;DHT22;4736;52.508;13.422;2023-06-26T14:27:06;28.50;50.50
9393;DHT22;4736;52.508;13.422;2023-06-26T14:30:10;27.70;54.50
9393;DHT22;4736;52.508;13.422;2023-06-26T14:33:14;26.20;61.50
9393;DHT22;4736;52.508;13.422;2023-06-26T14:36:21;24.50;65.40
9393;DHT22;4736;52.508;13.422;2023-06-26T14:39:27;23.30;68.40
9393;DHT22;4736;52.508;13.422;2023-06-26T14:42:30;21.90;71.90
9393;DHT22;4736;52.508;13.422;2023-06-26T14:45:34;21.30;73.30
9393;DHT22;4736;52.508;13.422;2023-06-26T14:48:38;20.90;74.20
9393;DHT22;4736;52.508;13.422;2023-06-26T14:51:42;20.60;75.30
9393;DHT22;4736;52.508;13.422;2023-06-26T14:54:45;20.50;75.70
9393;DHT22;4736;52.508;13.422;2023-06-26T14:57:48;20.50;75.90
9393;DHT22;4736;52.508;13.422;2023-06-26T15:00:52;20.50;76.70
9393;DHT22;4736;52.508;13.422;2023-06-26T15:03:55;20.40;77.70
9393;DHT22;4736;52.508;13.422;2023-06-26T15:06:59;20.30;78.70
9393;DHT22;4736;52.508;13.422;2023-06-26T15:10:04;20.30;79.70
9393;DHT22;4736;52.508;13.422;2023-06-26T15:13:08;20.30;80.20
9393;DHT22;4736;52.508;13.422;2023-06-26T15:16:11;20.30;80.10
9393;DHT22;4736;52.508;13.422;2023-06-26T15:19:14;20.30;80.40
9393;DHT22;4736;52.508;13.422;2023-06-26T15:22:21;20.30;80.40
9393;DHT22;4736;52.508;13.422;2023-06-26T15:25:25;20.30;80.00
9393;DHT22;4736;52.508;13.422;2023-06-26T15:28:30;20.30;79.90
9393;DHT22;4736;52.508;13.422;2023-06-26T15:31:33;20.20;79.80
9393;DHT22;4736;52.508;13.422;2023-06-26T15:34:36;20.10;79.40
9393;DHT22;4736;52.508;13.422;2023-06-26T15:37:41;20.10;79.00
9393;DHT22;4736;52.508;13.422;2023-06-26T15:40:44;20.20;78.50
9393;DHT22;4736;52.508;13.422;2023-06-26T15:43:47;20.20;78.20
9393;DHT22;4736;52.508;13.422;2023-06-26T15:46:50;20.30;77.70
9393;DHT22;4736;52.508;13.422;2023-06-26T15:49:54;20.30;77.70
9393;DHT22;4736;52.508;13.422;2023-06-26T15:52:58;20.50;77.70
9393;DHT22;4736;52.508;13.422;2023-06-26T15:56:02;20.50;77.60
9393;DHT22;4736;52.508;13.422;2023-06-26T15:59:05;20.50;77.40
9393;DHT22;4736;52.508;13.422;2023-06-26T16:02:09;20.50;77.40
9393;DHT22;4736;52.508;13.422;2023-06-26T16:05:12;20.50;77.50
9393;DHT22;4736;52.508;13.422;2023-06-26T16:08:17;20.60;77.60
9393;DHT22;4736;52.508;13.422;2023-06-26T16:11:20;20.70;77.20
9393;DHT22;4736;52.508;13.422;2023-06-26T16:14:23;20.80;77.30
9393;DHT22;4736;52.508;13.422;2023-06-26T16:17:27;21.00;77.10
9393;DHT22;4736;52.508;13.422;2023-06-26T16:20:30;21.20;76.70
9393;DHT22;4736;52.508;13.422;2023-06-26T16:23:35;21.50;75.80
9393;DHT22;4736;52.508;13.422;2023-06-26T16:26:39;21.70;74.70
9393;DHT22;4736;52.508;13.422;2023-06-26T16:29:42;21.90;75.20
9393;DHT22;4736;52.508;13.422;2023-06-26T16:32:48;22.10;74.60
9393;DHT22;4736;52.508;13.422;2023-06-26T16:35:51;22.20;73.60
9393;DHT22;4736;52.508;13.422;2023-06-26T16:38:55;22.10;73.30
9393;DHT22;4736;52.508;13.422;2023-06-26T16:41:59;22.10;73.50
9393;DHT22;4736;52.508;13.422;2023-06-26T16:45:02;22.00;73.60
9393;DHT22;4736;52.508;13.422;2023-06-26T16:48:05;21.90;73.50
9393;DHT22;4736;52.508;13.422;2023-06-26T16:51:08;21.80;73.90
9393;DHT22;4736;52.508;13.422;2023-06-26T16:54:14;21.60;74.20
9393;DHT22;4736;52.508;13.422;2023-06-26T16:57:17;21.50;74.40
9393;DHT22;4736;52.508;13.422;2023-06-26T17:00:21;21.50;74.30
9393;DHT22;4736;52.508;13.422;2023-06-26T17:03:24;21.40;74.80
9393;DHT22;4736;52.508;13.422;2023-06-26T17:06:30;21.30;74.80
9393;DHT22;4736;52.508;13.422;2023-06-26T17:09:35;21.30;74.80
9393;DHT22;4736;52.508;13.422;2023-06-26T17:12:38;21.30;74.20
9393;DHT22;4736;52.508;13.422;2023-06-26T17:15:43;21.40;74.60
9393;DHT22;4736;52.508;13.422;2023-06-26T17:18:47;21.40;74.30
9393;DHT22;4736;52.508;13.422;2023-06-26T17:21:51;21.40;73.60
9393;DHT22;4736;52.508;13.422;2023-06-26T17:24:56;21.50;73.50
9393;DHT22;4736;52.508;13.422;2023-06-26T17:28:03;21.50;73.40
9393;DHT22;4736;52.508;13.422;2023-06-26T17:31:06;21.70;73.30
9393;DHT22;4736;52.508;13.422;2023-06-26T17:34:09;21.80;72.60
9393;DHT22;4736;52.508;13.422;2023-06-26T17:37:12;21.80;72.30
9393;DHT22;4736;52.508;13.422;2023-06-26T17:40:17;21.80;72.80
9393;DHT22;4736;52.508;13.422;2023-06-26T17:43:20;21.90;72.70
9393;DHT22;4736;52.508;13.422;2023-06-26T17:46:24;21.80;72.80
9393;DHT22;4736;52.508;13.422;2023-06-26T17:49:27;21.70;72.50
9393;DHT22;4736;52.508;13.422;2023-06-26T17:52:30;21.70;72.60
9393;DHT22;4736;52.508;13.422;2023-06-26T17:55:34;21.70;72.50
9393;DHT22;4736;52.508;13.422;2023-06-26T17:58:37;21.70;72.30
9393;DHT22;4736;52.508;13.422;2023-06-26T18:01:41;21.70;72.20
9393;DHT22;4736;52.508;13.422;2023-06-26T18:04:44;21.70;72.00
9393;DHT22;4736;52.508;13.422;2023-06-26T18:07:47;21.60;71.80
9393;DHT22;4736;52.508;13.422;2023-06-26T18:11:05;21.50;72.10
9393;DHT22;4736;52.508;13.422;2023-06-26T18:14:08;21.50;72.50
9393;DHT22;4736;52.508;13.422;2023-06-26T18:17:13;21.50;72.30
9393;DHT22;4736;52.508;13.422;2023-06-26T18:20:17;21.40;72.50
9393;DHT22;4736;52.508;13.422;2023-06-26T18:23:20;21.40;72.50
9393;DHT22;4736;52.508;13.422;2023-06-26T18:26:24;21.40;72.60
9393;DHT22;4736;52.508;13.422;2023-06-26T18:29:28;21.30;72.40
9393;DHT22;4736;52.508;13.422;2023-06-26T18:32:32;21.20;72.20
9393;DHT22;4736;52.508;13.422;2023-06-26T18:35:35;21.10;71.90
9393;DHT22;4736;52.508;13.422;2023-06-26T18:38:39;21.10;72.00
9393;DHT22;4736;52.508;13.422;2023-06-26T18:41:44;21.10;72.20
9393;DHT22;4736;52.508;13.422;2023-06-26T18:44:47;21.10;72.20
9393;DHT22;4736;52.508;13.422;2023-06-26T18:47:51;21.00;72.30
9393;DHT22;4736;52.508;13.422;2023-06-26T18:50:55;21.00;72.50
9393;DHT22;4736;52.508;13.422;2023-06-26T18:53:58;21.00;72.60
9393;DHT22;4736;52.508;13.422;2023-06-26T18:57:05;20.90;72.70
9393;DHT22;4736;52.508;13.422;2023-06-26T19:00:09;20.90;72.70
9393;DHT22;4736;52.508;13.422;2023-06-26T19:03:13;20.80;72.90
9393;DHT22;4736;52.508;13.422;2023-06-26T19:06:16;20.80;72.90
9393;DHT22;4736;52.508;13.422;2023-06-26T19:09:19;20.70;73.20
9393;DHT22;4736;52.508;13.422;2023-06-26T19:12:24;20.80;72.30
9393;DHT22;4736;52.508;13.422;2023-06-26T19:15:27;20.70;72.40
9393;DHT22;4736;52.508;13.422;2023-06-26T19:18:30;20.60;72.20
9393;DHT22;4736;52.508;13.422;2023-06-26T19:21:33;20.60;72.40
9393;DHT22;4736;52.508;13.422;2023-06-26T19:24:37;20.50;71.50
9393;DHT22;4736;52.508;13.422;2023-06-26T19:27:43;20.60;70.70
9393;DHT22;4736;52.508;13.422;2023-06-26T19:30:47;20.50;70.00
9393;DHT22;4736;52.508;13.422;2023-06-26T19:33:51;20.40;70.30
9393;DHT22;4736;52.508;13.422;2023-06-26T19:36:57;20.30;70.00
9393;DHT22;4736;52.508;13.422;2023-06-26T19:40:00;20.30;69.50
9393;DHT22;4736;52.508;13.422;2023-06-26T19:43:06;20.30;67.50
9393;DHT22;4736;52.508;13.422;2023-06-26T19:46:09;20.10;67.20
9393;DHT22;4736;52.508;13.422;2023-06-26T19:49:12;20.00;66.00